Time;durP1;ratioP1;P1;durP2;ratioP2;P2;SDS_P1;SDS_P2;PMS_P1;PMS_P2;Temp;Humidity;BMP_temperature;BMP_pressure;BME280_temperature;BME280_humidity;BME280_pressure;Samples;Min_cycle;Max_cycle;Signal;HPM_P1;HPM_P2
2023/09/10 00:01:05;;;;;;;3.35;3.15;;;21.60;99.90;;;;;;5014285;28;20187;-65
2023/09/10 00:03:33;;;;;;;3.58;3.28;;;21.60;99.90;;;;;;5013060;28;20273;-65
2023/09/10 00:06:00;;;;;;;2.97;2.75;;;21.60;99.90;;;;;;5014960;28;20231;-65
2023/09/10 00:08:28;;;;;;;3.30;3.10;;;21.50;99.90;;;;;;5013957;28;20292;-66
2023/09/10 00:10:55;;;;;;;3.00;2.80;;;21.50;99.90;;;;;;5015280;28;20263;-66
2023/09/10 00:13:23;;;;;;;3.45;3.15;;;21.50;99.90;;;;;;5012487;28;20249;-65
2023/09/10 00:15:51;;;;;;;3.47;2.95;;;21.50;99.90;;;;;;4997424;28;20195;-65
2023/09/10 00:18:19;;;;;;;3.17;2.97;;;21.50;99.90;;;;;;5014999;28;20203;-66
2023/09/10 00:20:47;;;;;;;3.10;2.90;;;21.50;99.90;;;;;;5013566;28;20202;-66
2023/09/10 00:23:14;;;;;;;3.42;3.20;;;21.50;99.90;;;;;;5019965;28;20215;-65
2023/09/10 00:25:41;;;;;;;3.42;3.22;;;21.50;99.90;;;;;;5019949;28;20194;-66
2023/09/10 00:28:08;;;;;;;3.83;3.45;;;21.40;99.90;;;;;;5020327;28;20199;-66
2023/09/10 00:30:36;;;;;;;4.93;3.90;;;21.40;99.90;;;;;;5022414;28;20301;-66
2023/09/10 00:33:05;;;;;;;3.50;3.30;;;21.30;99.90;;;;;;5018314;28;20536;-65
2023/09/10 00:35:32;;;;;;;3.28;3.08;;;21.30;99.90;;;;;;5013715;28;20215;-65
2023/09/10 00:38:00;;;;;;;3.22;2.92;;;21.30;99.90;;;;;;5021020;28;20196;-66
2023/09/10 00:40:27;;;;;;;3.60;3.30;;;21.40;99.90;;;;;;5008982;28;20589;-66
2023/09/10 00:42:54;;;;;;;3.10;2.90;;;21.40;99.90;;;;;;5011139;28;20215;-66
2023/09/10 00:45:21;;;;;;;3.25;3.05;;;21.50;99.90;;;;;;5011168;28;20199;-65
2023/09/10 00:47:48;;;;;;;3.10;2.90;;;21.40;99.90;;;;;;4991712;28;20257;-66
2023/09/10 00:50:18;;;;;;;3.20;3.00;;;21.40;99.90;;;;;;5012416;28;20253;-64
2023/09/10 00:52:49;;;;;;;3.35;3.13;;;21.40;99.90;;;;;;5006112;28;20195;-66
2023/09/10 00:55:18;;;;;;;3.88;3.47;;;21.40;99.90;;;;;;5014282;28;20566;-65
2023/09/10 00:57:46;;;;;;;3.92;3.53;;;21.40;99.90;;;;;;5017157;28;20199;-65
2023/09/10 01:00:14;;;;;;;3.95;3.65;;;21.30;99.90;;;;;;5015338;28;20207;-65
2023/09/10 01:02:44;;;;;;;3.40;3.10;;;21.30;99.90;;;;;;5014519;28;20231;-65
2023/09/10 01:05:12;;;;;;;3.58;3.28;;;21.30;99.90;;;;;;5017026;28;20282;-66
2023/09/10 01:07:41;;;;;;;3.28;3.00;;;21.30;99.90;;;;;;4997320;28;20207;-65
2023/09/10 01:10:09;;;;;;;3.00;2.80;;;21.30;99.90;;;;;;5014490;28;20277;-65
2023/09/10 01:12:48;;;;;;;3.03;2.83;;;21.30;99.90;;;;;;5015831;28;20706;-65
2023/09/10 01:15:27;;;;;;;3.35;3.05;;;21.30;99.90;;;;;;5016055;28;20198;-65
2023/09/10 01:18:01;;;;;;;3.20;2.90;;;21.30;99.90;;;;;;5017889;28;20197;-64
2023/09/10 01:21:03;;;;;;;2.80;2.40;;;21.30;99.90;;;;;;5016138;28;20238;-65
2023/09/10 01:23:50;;;;;;;2.80;2.60;;;21.20;99.90;;;;;;5010370;28;20225;-66
2023/09/10 01:26:19;;;;;;;2.60;2.42;;;21.30;99.90;;;;;;5017728;28;20195;-65
2023/09/10 01:28:46;;;;;;;2.72;2.53;;;21.30;99.90;;;;;;5011510;28;20194;-65
2023/09/10 01:31:13;;;;;;;3.17;2.88;;;21.30;99.90;;;;;;4994729;28;20654;-65
2023/09/10 01:33:46;;;;;;;2.90;2.70;;;21.20;99.90;;;;;;5007726;28;20242;-65
2023/09/10 01:36:21;;;;;;;3.70;2.88;;;21.20;99.90;;;;;;5013699;28;20257;-65
2023/09/10 01:38:54;;;;;;;3.35;3.00;;;21.10;99.90;;;;;;5007584;28;20199;-65
2023/09/10 01:41:25;;;;;;;2.50;2.40;;;21.10;99.90;;;;;;5013349;28;20241;-65
2023/09/10 01:43:54;;;;;;;2.67;2.47;;;21.10;99.90;;;;;;5012693;28;20239;-66
2023/09/10 01:46:22;;;;;;;3.05;2.85;;;21.10;99.90;;;;;;5013925;28;20207;-65
2023/09/10 01:48:50;;;;;;;2.63;2.50;;;21.10;99.90;;;;;;4994525;28;20203;-65
2023/09/10 01:51:18;;;;;;;3.10;2.80;;;21.10;99.90;;;;;;5009285;28;20666;-66
2023/09/10 01:53:46;;;;;;;3.25;3.05;;;21.00;99.90;;;;;;5015123;28;20191;-65
2023/09/10 01:56:13;;;;;;;2.80;2.60;;;21.00;99.90;;;;;;5017764;28;20231;-66
2023/09/10 01:58:42;;;;;;;2.70;2.50;;;21.00;99.90;;;;;;5018329;28;20289;-65
2023/09/10 02:01:09;;;;;;;2.63;2.42;;;21.00;99.90;;;;;;4998715;28;20265;-65
2023/09/10 02:03:36;;;;;;;3.00;2.80;;;21.00;99.90;;;;;;5018989;28;20222;-66
2023/09/10 02:06:04;;;;;;;2.92;2.70;;;21.00;99.90;;;;;;5022742;28;20231;-65
2023/09/10 02:08:31;;;;;;;2.83;2.63;;;20.90;99.90;;;;;;5017899;28;20206;-65
2023/09/10 02:10:58;;;;;;;2.83;2.63;;;21.00;99.90;;;;;;5028982;28;20216;-66
2023/09/10 02:13:25;;;;;;;3.08;2.80;;;20.90;99.90;;;;;;5025930;28;20605;-65
2023/09/10 02:15:54;;;;;;;3.17;2.70;;;20.90;99.90;;;;;;5030144;28;20229;-65
2023/09/10 02:18:22;;;;;;;3.47;3.25;;;20.90;99.90;;;;;;5026406;28;20225;-65
2023/09/10 02:20:49;;;;;;;2.83;2.63;;;20.80;99.90;;;;;;4997804;28;20203;-65
2023/09/10 02:23:16;;;;;;;2.95;2.75;;;20.70;99.90;;;;;;5016649;28;20219;-65
2023/09/10 02:25:43;;;;;;;3.00;2.80;;;20.70;99.90;;;;;;5017657;28;20559;-66
2023/09/10 02:28:12;;;;;;;3.33;3.03;;;20.70;99.90;;;;;;5018583;28;20255;-66
2023/09/10 02:30:39;;;;;;;3.63;3.20;;;20.70;99.90;;;;;;5018261;28;20662;-66
2023/09/10 02:33:09;;;;;;;3.28;3.08;;;20.70;99.90;;;;;;5016837;28;20191;-65
2023/09/10 02:35:36;;;;;;;3.40;3.10;;;20.70;99.90;;;;;;5018424;28;20720;-65
2023/09/10 02:38:04;;;;;;;2.90;2.70;;;20.70;99.90;;;;;;5014476;28;20195;-65
2023/09/10 02:40:31;;;;;;;2.80;2.60;;;20.70;99.90;;;;;;4998809;28;20231;-65
2023/09/10 02:42:59;;;;;;;2.65;2.47;;;20.70;99.90;;;;;;5012645;28;20220;-65
2023/09/10 02:45:28;;;;;;;3.05;2.78;;;20.70;99.90;;;;;;5003540;28;20199;-65
2023/09/10 02:47:55;;;;;;;3.10;2.60;;;20.70;99.90;;;;;;5010942;28;20299;-65
2023/09/10 02:50:24;;;;;;;2.95;2.75;;;20.70;99.90;;;;;;4992327;28;20298;-65
2023/09/10 02:52:51;;;;;;;3.05;2.83;;;20.70;99.90;;;;;;5000551;28;20663;-66
2023/09/10 02:55:18;;;;;;;2.72;2.50;;;20.60;99.90;;;;;;5018178;28;20576;-65
2023/09/10 02:57:45;;;;;;;2.55;2.45;;;20.60;99.90;;;;;;5000872;28;20230;-65
2023/09/10 03:00:14;;;;;;;2.80;2.60;;;20.70;99.90;;;;;;5008971;28;20200;-65
2023/09/10 03:02:41;;;;;;;4.05;3.65;;;20.70;99.90;;;;;;4997855;28;20701;-65
2023/09/10 03:05:08;;;;;;;3.00;2.80;;;20.60;99.90;;;;;;5011076;28;20227;-65
2023/09/10 03:07:37;;;;;;;2.85;2.65;;;20.60;99.90;;;;;;4999956;28;20612;-66
2023/09/10 03:10:05;;;;;;;3.00;2.80;;;20.60;99.90;;;;;;4995516;28;20290;-65
2023/09/10 03:12:32;;;;;;;3.47;3.17;;;20.60;99.90;;;;;;5000027;28;20209;-66
2023/09/10 03:15:00;;;;;;;3.47;3.17;;;20.60;99.90;;;;;;4998462;28;20709;-66
2023/09/10 03:17:29;;;;;;;2.75;2.55;;;20.70;99.90;;;;;;5017021;28;20284;-66
2023/09/10 03:19:57;;;;;;;2.40;2.30;;;20.70;99.90;;;;;;5014819;28;20187;-65
2023/09/10 03:22:24;;;;;;;2.72;2.53;;;20.70;99.90;;;;;;5018345;28;20222;-65
2023/09/10 03:24:53;;;;;;;2.78;2.58;;;20.70;99.90;;;;;;5000616;28;20213;-65
2023/09/10 03:27:20;;;;;;;2.55;2.35;;;20.70;99.90;;;;;;5016985;28;20226;-66
2023/09/10 03:29:47;;;;;;;2.38;2.28;;;20.80;99.90;;;;;;4994904;28;20754;-66
2023/09/10 03:32:14;;;;;;;2.80;2.55;;;20.70;99.90;;;;;;5020558;28;20218;-65
2023/09/10 03:34:42;;;;;;;2.20;2.10;;;20.70;99.90;;;;;;4998584;28;20203;-66
2023/09/10 03:37:09;;;;;;;2.53;2.40;;;20.70;99.90;;;;;;5023956;28;20214;-65
2023/09/10 03:39:37;;;;;;;2.10;2.00;;;20.70;99.90;;;;;;5004419;28;20222;-65
2023/09/10 03:42:08;;;;;;;2.53;2.33;;;20.70;99.90;;;;;;5007338;28;20241;-65
2023/09/10 03:44:35;;;;;;;3.58;2.80;;;20.70;99.90;;;;;;4987531;28;20225;-66
2023/09/10 03:47:02;;;;;;;2.80;2.63;;;20.70;99.90;;;;;;5012252;28;20290;-64
2023/09/10 03:49:30;;;;;;;2.45;2.25;;;20.70;99.90;;;;;;4993871;28;20203;-65
2023/09/10 03:51:58;;;;;;;2.28;2.15;;;20.70;99.90;;;;;;4996438;28;20298;-65
2023/09/10 03:54:25;;;;;;;2.20;2.10;;;20.70;99.90;;;;;;5006094;28;20521;-66
2023/09/10 03:56:52;;;;;;;2.67;2.47;;;20.60;99.90;;;;;;4995868;28;20203;-65
2023/09/10 03:59:21;;;;;;;2.33;2.13;;;20.60;99.90;;;;;;5014142;28;20207;-65
2023/09/10 04:01:48;;;;;;;2.67;2.47;;;20.60;99.90;;;;;;5015327;28;20270;-65
2023/09/10 04:04:15;;;;;;;2.47;2.33;;;20.60;99.90;;;;;;5012697;28;20235;-65
2023/09/10 04:06:43;;;;;;;2.45;2.35;;;20.60;99.90;;;;;;4998107;28;20323;-65
2023/09/10 04:09:11;;;;;;;4.43;3.13;;;20.50;99.90;;;;;;5014058;28;20195;-65
2023/09/10 04:11:38;;;;;;;2.92;2.72;;;20.50;99.90;;;;;;5016194;28;20290;-65
2023/09/10 04:14:05;;;;;;;5.55;2.70;;;20.40;99.90;;;;;;5011713;28;20555;-65
2023/09/10 04:16:33;;;;;;;2.65;2.45;;;20.40;99.90;;;;;;5016767;28;20203;-65
2023/09/10 04:19:00;;;;;;;3.00;2.58;;;20.40;99.90;;;;;;5006311;28;20657;-65
2023/09/10 04:21:27;;;;;;;2.72;2.53;;;20.30;99.90;;;;;;4998600;28;20677;-66
2023/09/10 04:23:54;;;;;;;2.83;2.63;;;20.20;99.90;;;;;;5013982;28;20215;-65
2023/09/10 04:26:22;;;;;;;2.70;2.50;;;20.20;99.90;;;;;;4999846;28;20322;-65
2023/09/10 04:28:49;;;;;;;2.67;2.47;;;20.10;99.90;;;;;;4996363;28;20328;-65
2023/09/10 04:31:17;;;;;;;2.88;2.67;;;20.10;99.90;;;;;;5011191;28;20199;-65
2023/09/10 04:33:46;;;;;;;3.08;2.80;;;20.00;99.90;;;;;;5006928;28;20195;-65
2023/09/10 04:36:13;;;;;;;3.17;2.88;;;19.90;99.90;;;;;;4997558;28;20184;-65
2023/09/10 04:38:41;;;;;;;2.90;2.70;;;19.90;99.90;;;;;;5008392;28;20206;-66
2023/09/10 04:41:08;;;;;;;3.10;2.80;;;19.90;99.90;;;;;;5005149;28;20312;-64
2023/09/10 04:43:36;;;;;;;2.92;2.72;;;19.90;99.90;;;;;;5002740;28;20219;-65
2023/09/10 04:46:03;;;;;;;3.40;3.10;;;19.90;99.90;;;;;;5013268;28;20199;-66
2023/09/10 04:48:30;;;;;;;3.55;3.20;;;19.90;99.90;;;;;;5011149;28;20211;-65
2023/09/10 04:50:59;;;;;;;3.63;3.20;;;20.00;99.90;;;;;;4992262;28;20282;-66
2023/09/10 04:53:26;;;;;;;3.45;3.20;;;20.00;99.90;;;;;;5009211;28;20199;-66
2023/09/10 04:55:54;;;;;;;2.88;2.67;;;20.00;99.90;;;;;;4991246;28;20234;-65
2023/09/10 04:58:23;;;;;;;3.25;2.90;;;20.10;99.90;;;;;;5010736;28;20294;-65
2023/09/10 05:00:51;;;;;;;3.50;3.20;;;20.10;99.90;;;;;;5011211;28;20206;-64
2023/09/10 05:03:18;;;;;;;3.63;3.15;;;20.00;99.90;;;;;;4992182;28;20215;-65
2023/09/10 05:05:45;;;;;;;3.30;2.95;;;20.00;99.90;;;;;;5010814;28;20242;-65
2023/09/10 05:08:14;;;;;;;3.10;2.80;;;20.10;99.90;;;;;;4998766;28;20228;-64
2023/09/10 05:10:41;;;;;;;3.25;3.05;;;20.10;99.90;;;;;;5010437;28;20662;-65
2023/09/10 05:13:08;;;;;;;3.00;2.80;;;20.10;99.90;;;;;;5016426;28;20199;-65
2023/09/10 05:15:35;;;;;;;2.90;2.70;;;20.20;99.90;;;;;;5000552;28;20269;-65
2023/09/10 05:18:05;;;;;;;3.00;2.67;;;20.20;99.90;;;;;;5004112;28;20228;-65
2023/09/10 05:20:33;;;;;;;2.95;2.75;;;20.20;99.90;;;;;;4995939;28;20223;-65
2023/09/10 05:23:00;;;;;;;3.30;3.10;;;20.20;99.90;;;;;;5008995;28;20230;-65
2023/09/10 05:25:29;;;;;;;3.40;3.10;;;20.20;99.90;;;;;;5008969;28;20211;-65
2023/09/10 05:27:56;;;;;;;2.80;2.60;;;20.20;99.90;;;;;;4992986;28;20683;-65
2023/09/10 05:30:24;;;;;;;3.30;3.00;;;20.30;99.90;;;;;;5016178;28;20195;-65
2023/09/10 05:32:51;;;;;;;2.60;2.40;;;20.20;99.90;;;;;;5001051;28;20207;-65
2023/09/10 05:35:18;;;;;;;3.20;2.90;;;20.20;99.90;;;;;;5016632;28;20607;-65
2023/09/10 05:37:46;;;;;;;3.10;2.90;;;20.30;99.90;;;;;;5010791;28;20199;-66
2023/09/10 05:40:13;;;;;;;7.90;4.63;;;20.30;99.90;;;;;;4993332;28;20195;-66
2023/09/10 05:42:41;;;;;;;5.05;4.60;;;20.30;99.90;;;;;;5007422;28;20210;-66
2023/09/10 05:45:09;;;;;;;4.47;4.05;;;20.30;99.90;;;;;;4991743;28;20294;-65
2023/09/10 05:47:36;;;;;;;5.97;4.65;;;20.30;99.90;;;;;;5001947;28;20200;-65
2023/09/10 05:50:04;;;;;;;4.07;3.78;;;20.20;99.90;;;;;;5013469;28;20529;-66
2023/09/10 05:52:31;;;;;;;4.65;3.95;;;20.20;99.90;;;;;;4993910;28;20207;-65
2023/09/10 05:54:58;;;;;;;6.32;4.95;;;20.20;99.90;;;;;;5001370;28;20642;-66
2023/09/10 05:57:28;;;;;;;5.30;4.80;;;20.20;99.90;;;;;;5017087;28;20199;-65
2023/09/10 05:59:57;;;;;;;8.10;5.53;;;20.20;99.90;;;;;;5002122;28;20206;-65
2023/09/10 06:02:24;;;;;;;6.15;5.55;;;20.10;99.90;;;;;;5015922;28;20195;-66
2023/09/10 06:04:51;;;;;;;6.82;4.70;;;20.10;99.90;;;;;;5015782;28;20223;-66
2023/09/10 06:07:18;;;;;;;10.48;6.07;;;20.10;99.90;;;;;;4999683;28;20234;-66
2023/09/10 06:09:46;;;;;;;6.72;5.55;;;20.10;99.90;;;;;;5021101;28;20203;-66
2023/09/10 06:12:13;;;;;;;5.90;4.75;;;20.10;99.90;;;;;;5017144;28;20204;-66
2023/09/10 06:14:40;;;;;;;7.90;5.95;;;20.20;99.90;;;;;;5020739;28;20245;-65
2023/09/10 06:17:09;;;;;;;7.88;5.47;;;20.20;99.90;;;;;;5010674;28;20567;-65
2023/09/10 06:19:36;;;;;;;5.70;5.10;;;20.20;99.90;;;;;;5018877;28;20207;-65
2023/09/10 06:22:04;;;;;;;5.03;4.50;;;20.20;99.90;;;;;;5010899;28;20233;-66
2023/09/10 06:24:31;;;;;;;5.28;4.57;;;20.30;99.90;;;;;;4996271;28;20687;-66
2023/09/10 06:26:58;;;;;;;5.90;4.95;;;20.30;99.90;;;;;;5016378;28;20229;-66
2023/09/10 06:29:25;;;;;;;9.05;5.68;;;20.30;99.90;;;;;;5001215;28;20298;-65
2023/09/10 06:31:52;;;;;;;7.13;5.90;;;20.40;99.90;;;;;;5011473;28;20227;-65
2023/09/10 06:34:21;;;;;;;6.63;5.57;;;20.40;99.90;;;;;;4983801;28;20563;-65
2023/09/10 06:36:48;;;;;;;8.98;6.60;;;20.40;99.90;;;;;;5001231;28;20300;-65
2023/09/10 06:39:15;;;;;;;9.32;5.22;;;20.40;99.90;;;;;;5010214;28;20207;-66
2023/09/10 06:41:42;;;;;;;8.45;5.53;;;20.40;99.90;;;;;;5010515;28;20206;-65
2023/09/10 06:44:09;;;;;;;8.18;6.15;;;20.40;99.90;;;;;;4994841;28;20538;-65
2023/09/10 06:46:37;;;;;;;8.60;5.82;;;20.50;99.90;;;;;;5010575;28;20635;-65
2023/09/10 06:49:04;;;;;;;6.65;5.75;;;20.50;99.90;;;;;;5010738;28;20729;-65
2023/09/10 06:51:32;;;;;;;6.15;5.55;;;20.60;99.90;;;;;;5012722;28;20207;-65
2023/09/10 06:53:59;;;;;;;6.10;4.97;;;20.60;99.90;;;;;;5011366;28;20279;-65
2023/09/10 06:56:26;;;;;;;4.95;4.55;;;20.60;99.90;;;;;;5011249;28;20206;-65
2023/09/10 06:58:53;;;;;;;4.40;4.00;;;20.70;99.90;;;;;;5017156;28;20207;-65
2023/09/10 07:01:21;;;;;;;4.38;3.97;;;20.80;99.90;;;;;;5010629;28;20266;-66
2023/09/10 07:03:48;;;;;;;6.05;5.45;;;20.90;99.90;;;;;;4999786;28;20207;-66
2023/09/10 07:06:15;;;;;;;5.13;4.15;;;21.00;99.90;;;;;;5014494;28;20235;-65
2023/09/10 07:08:44;;;;;;;6.25;5.15;;;21.00;99.90;;;;;;5017502;28;20199;-66
2023/09/10 07:11:11;;;;;;;5.93;5.32;;;21.10;99.90;;;;;;5020140;28;20191;-65
2023/09/10 07:13:38;;;;;;;5.03;4.25;;;21.10;99.90;;;;;;5015938;28;20196;-66
2023/09/10 07:16:06;;;;;;;6.50;5.80;;;21.20;99.90;;;;;;5014794;28;20226;-66
2023/09/10 07:18:33;;;;;;;9.95;7.35;;;21.30;99.90;;;;;;4997533;28;20633;-66
2023/09/10 07:21:00;;;;;;;9.10;7.28;;;21.30;99.90;;;;;;5007894;28;20563;-65
2023/09/10 07:23:28;;;;;;;10.32;8.02;;;21.40;99.90;;;;;;5015616;28;20199;-66
2023/09/10 07:25:57;;;;;;;8.25;6.63;;;21.40;99.90;;;;;;5014178;28;20219;-65
2023/09/10 07:28:24;;;;;;;7.47;6.15;;;21.50;99.90;;;;;;5014386;28;20226;-64
2023/09/10 07:30:51;;;;;;;7.68;6.10;;;21.50;99.90;;;;;;5018771;28;20217;-65
2023/09/10 07:33:18;;;;;;;6.40;5.80;;;21.60;99.90;;;;;;5011884;28;20302;-65
2023/09/10 07:35:45;;;;;;;8.88;6.13;;;21.70;99.90;;;;;;5016410;28;20594;-66
2023/09/10 07:38:12;;;;;;;6.68;5.95;;;21.70;99.90;;;;;;5018868;28;20196;-66
2023/09/10 07:40:39;;;;;;;8.73;7.13;;;21.80;99.90;;;;;;5017739;28;20566;-66
2023/09/10 07:43:08;;;;;;;11.43;8.45;;;21.90;99.90;;;;;;5015654;28;20199;-66
2023/09/10 07:45:35;;;;;;;11.38;8.10;;;22.00;99.90;;;;;;5026403;28;20214;-66
2023/09/10 07:48:02;;;;;;;7.40;6.47;;;22.00;99.90;;;;;;5011976;28;20242;-66
2023/09/10 07:50:29;;;;;;;6.60;5.90;;;22.10;99.90;;;;;;5020196;28;20194;-66
2023/09/10 07:52:56;;;;;;;7.50;6.70;;;22.10;99.90;;;;;;5015045;28;20257;-66
2023/09/10 07:55:23;;;;;;;7.40;6.63;;;22.20;99.90;;;;;;5020123;28;20575;-66
2023/09/10 07:57:50;;;;;;;7.22;6.50;;;22.30;99.90;;;;;;5015199;28;20656;-66
2023/09/10 08:00:20;;;;;;;6.25;5.20;;;22.40;99.90;;;;;;5021806;28;20264;-67
2023/09/10 08:02:49;;;;;;;7.05;6.35;;;22.40;99.90;;;;;;5018464;28;20199;-66
2023/09/10 08:05:16;;;;;;;9.15;7.53;;;22.90;99.90;;;;;;5019529;28;20709;-66
2023/09/10 08:07:43;;;;;;;9.02;7.22;;;22.60;99.90;;;;;;5017456;28;20187;-67
2023/09/10 08:10:10;;;;;;;7.68;5.75;;;22.70;99.90;;;;;;5007096;28;20215;-67
2023/09/10 08:12:41;;;;;;;5.65;5.13;;;22.70;99.90;;;;;;5009936;28;20199;-67
2023/09/10 08:15:09;;;;;;;6.30;5.70;;;22.80;99.90;;;;;;5008847;28;20207;-67
2023/09/10 08:17:38;;;;;;;8.20;6.00;;;22.90;99.90;;;;;;5009580;28;20666;-66
2023/09/10 08:20:07;;;;;;;10.57;7.80;;;22.90;99.90;;;;;;5010582;28;20196;-66
2023/09/10 08:22:34;;;;;;;10.88;7.22;;;23.10;99.90;;;;;;5006274;28;20210;-67
2023/09/10 08:25:04;;;;;;;11.73;8.20;;;23.10;99.90;;;;;;5001534;28;20225;-66
2023/09/10 08:27:31;;;;;;;8.50;7.22;;;23.10;99.90;;;;;;5009464;28;20227;-66
2023/09/10 08:29:58;;;;;;;8.00;7.10;;;23.20;99.90;;;;;;5003328;28;20219;-67
2023/09/10 08:32:25;;;;;;;7.15;6.38;;;23.20;99.90;;;;;;5008034;28;20200;-67
2023/09/10 08:34:53;;;;;;;10.45;6.13;;;23.30;99.90;;;;;;5009751;28;20249;-67
2023/09/10 08:37:21;;;;;;;7.57;6.88;;;23.40;99.90;;;;;;5010257;28;20203;-66
2023/09/10 08:39:49;;;;;;;8.15;6.90;;;23.40;99.90;;;;;;4996669;28;20250;-67
2023/09/10 08:42:26;;;;;;;6.75;6.07;;;23.50;99.90;;;;;;5012466;28;20200;-67
2023/09/10 08:44:57;;;;;;;7.25;6.35;;;23.60;99.90;;;;;;4987295;28;20694;-66
2023/09/10 08:47:25;;;;;;;8.52;6.55;;;23.60;99.90;;;;;;5011582;28;20563;-67
2023/09/10 08:50:02;;;;;;;9.27;6.28;;;23.70;99.90;;;;;;5023754;28;20206;-66
2023/09/10 08:52:31;;;;;;;6.82;6.13;;;23.80;99.90;;;;;;5013616;28;20253;-67
2023/09/10 08:54:59;;;;;;;6.22;5.63;;;23.80;99.90;;;;;;5011271;28;20192;-66
2023/09/10 08:57:29;;;;;;;6.72;6.13;;;23.90;99.90;;;;;;5011338;28;20199;-66
2023/09/10 08:59:57;;;;;;;10.50;7.05;;;24.00;99.90;;;;;;5009092;28;20210;-66
2023/09/10 09:02:24;;;;;;;8.27;6.32;;;24.00;99.90;;;;;;5014818;28;20206;-65
2023/09/10 09:04:53;;;;;;;6.53;5.82;;;24.10;99.90;;;;;;5017572;28;20318;-66
2023/09/10 09:07:22;;;;;;;6.50;5.50;;;24.10;99.90;;;;;;5021511;28;20234;-66
2023/09/10 09:09:54;;;;;;;6.88;6.18;;;24.20;99.90;;;;;;4988079;28;20203;-66
2023/09/10 09:12:21;;;;;;;6.05;5.47;;;24.30;99.90;;;;;;5024213;28;20606;-66
2023/09/10 09:14:51;;;;;;;10.05;6.18;;;24.30;99.90;;;;;;5008833;28;20226;-66
2023/09/10 09:17:21;;;;;;;6.90;6.20;;;24.40;99.90;;;;;;5004792;28;20206;-65
2023/09/10 09:19:54;;;;;;;8.93;6.22;;;24.50;99.90;;;;;;5009141;28;20210;-66
2023/09/10 09:22:23;;;;;;;7.93;6.18;;;24.50;99.90;;;;;;5003375;28;20211;-65
2023/09/10 09:24:51;;;;;;;5.72;5.22;;;24.60;99.90;;;;;;5009402;28;20613;-65
2023/09/10 09:27:20;;;;;;;6.70;5.78;;;24.70;99.90;;;;;;4986355;28;20235;-66
2023/09/10 09:29:54;;;;;;;7.65;5.68;;;24.70;99.90;;;;;;5021568;28;20694;-66
2023/09/10 09:32:24;;;;;;;6.68;5.93;;;24.90;99.90;;;;;;5020220;28;20602;-66
2023/09/10 09:34:51;;;;;;;6.60;5.95;;;25.00;99.90;;;;;;4997684;28;20286;-65
2023/09/10 09:37:20;;;;;;;5.85;5.35;;;25.00;99.90;;;;;;5017861;28;20233;-66
2023/09/10 09:39:51;;;;;;;6.68;5.57;;;25.10;99.90;;;;;;5002489;28;20199;-65
2023/09/10 09:42:23;;;;;;;7.18;5.90;;;25.20;99.90;;;;;;4994392;28;20219;-66
2023/09/10 09:44:50;;;;;;;6.05;5.47;;;25.30;99.90;;;;;;4987660;28;20218;-65
2023/09/10 09:47:19;;;;;;;5.90;5.30;;;25.40;99.90;;;;;;4995194;28;20203;-64
2023/09/10 09:49:48;;;;;;;5.65;5.15;;;25.50;99.90;;;;;;5011391;28;20207;-65
2023/09/10 09:52:17;;;;;;;5.40;4.90;;;25.60;99.90;;;;;;5014841;28;20195;-66
2023/09/10 09:54:46;;;;;;;8.55;5.45;;;25.70;99.90;;;;;;5014785;28;20203;-66
2023/09/10 09:57:13;;;;;;;4.95;4.53;;;25.90;99.90;;;;;;4998060;28;20614;-66
2023/09/10 09:59:42;;;;;;;6.30;5.47;;;26.00;99.90;;;;;;4995609;28;20199;-66
2023/09/10 10:02:14;;;;;;;5.97;5.38;;;26.00;99.90;;;;;;5015102;28;20202;-66
2023/09/10 10:04:43;;;;;;;5.75;4.60;;;26.10;99.90;;;;;;5015408;28;20277;-66
2023/09/10 10:07:10;;;;;;;9.13;5.78;;;26.20;99.90;;;;;;4985627;28;20244;-66
2023/09/10 10:09:40;;;;;;;5.60;5.10;;;26.30;99.90;;;;;;4968872;28;20197;-67
2023/09/10 10:12:09;;;;;;;6.03;4.95;;;26.40;99.90;;;;;;4971821;28;20201;-66
2023/09/10 10:14:40;;;;;;;4.97;4.55;;;26.50;99.90;;;;;;4966796;28;20208;-66
2023/09/10 10:17:10;;;;;;;5.13;4.63;;;26.60;99.90;;;;;;4963564;28;20610;-66
2023/09/10 10:19:38;;;;;;;6.07;5.47;;;26.70;99.90;;;;;;4967331;28;20227;-66
2023/09/10 10:22:07;;;;;;;6.10;5.50;;;26.70;99.90;;;;;;4969327;28;20200;-65
2023/09/10 10:24:35;;;;;;;6.25;5.40;;;26.80;99.90;;;;;;4968860;28;20310;-66
2023/09/10 10:27:03;;;;;;;6.50;4.72;;;27.00;99.90;;;;;;4966086;28;20228;-66
2023/09/10 10:29:33;;;;;;;5.65;5.10;;;27.10;99.90;;;;;;4964945;28;20200;-65
2023/09/10 10:32:06;;;;;;;5.35;4.93;;;27.20;99.90;;;;;;4964679;28;20197;-65
2023/09/10 10:34:42;;;;;;;5.00;4.50;;;27.30;99.90;;;;;;4986766;28;20268;-65
2023/09/10 10:37:16;;;;;;;5.50;4.75;;;27.30;99.90;;;;;;4975259;28;20258;-65
2023/09/10 10:39:58;;;;;;;6.05;5.45;;;27.40;99.90;;;;;;4972011;28;20212;-67
2023/09/10 10:42:32;;;;;;;5.72;5.15;;;27.40;99.90;;;;;;4973722;28;20254;-66
2023/09/10 10:45:04;;;;;;;5.55;4.88;;;27.50;99.90;;;;;;4971544;28;20254;-65
2023/09/10 10:47:38;;;;;;;5.03;4.57;;;27.50;99.90;;;;;;4970776;28;20192;-66
2023/09/10 10:50:10;;;;;;;5.03;4.63;;;27.60;99.80;;;;;;4970883;28;20724;-65
2023/09/10 10:52:43;;;;;;;5.00;4.53;;;27.70;99.60;;;;;;4971969;28;20225;-66
2023/09/10 10:55:14;;;;;;;5.03;4.63;;;27.70;99.00;;;;;;4972794;28;20192;-65
2023/09/10 10:57:44;;;;;;;4.68;4.28;;;27.80;98.70;;;;;;4973655;28;20624;-65
2023/09/10 11:00:14;;;;;;;5.50;4.45;;;28.00;98.10;;;;;;4971784;28;20196;-65
2023/09/10 11:02:46;;;;;;;4.60;4.20;;;28.00;97.50;;;;;;4972533;28;20271;-64
2023/09/10 11:05:13;;;;;;;4.80;4.40;;;28.10;97.50;;;;;;4969840;28;20392;-65
2023/09/10 11:07:40;;;;;;;4.45;4.13;;;28.20;97.40;;;;;;5012993;28;20541;-65
2023/09/10 11:10:50;;;;;;;3.83;3.53;;;28.30;97.30;;;;;;5013767;28;20268;-65
2023/09/10 11:13:17;;;;;;;5.65;4.88;;;28.40;97.10;;;;;;5001913;28;20211;-66
2023/09/10 11:16:18;;;;;;;5.82;4.82;;;28.60;95.70;;;;;;5010107;28;20632;-66
2023/09/10 11:18:46;;;;;;;4.95;4.55;;;28.50;94.30;;;;;;5011214;28;20218;-66
2023/09/10 11:21:15;;;;;;;4.50;4.10;;;28.60;93.80;;;;;;5004387;28;20202;-66
2023/09/10 11:24:21;;;;;;;5.15;4.65;;;28.60;93.30;;;;;;5013503;28;20597;-66
2023/09/10 11:26:50;;;;;;;3.83;3.53;;;28.60;92.80;;;;;;5017378;28;20233;-65
2023/09/10 11:29:18;;;;;;;4.65;3.60;;;28.70;92.60;;;;;;5007713;28;20294;-65
2023/09/10 11:31:52;;;;;;;3.92;3.63;;;28.80;92.40;;;;;;5008649;28;20200;-65
2023/09/10 11:34:42;;;;;;;3.92;3.47;;;28.90;91.90;;;;;;5008403;28;20708;-66
2023/09/10 11:37:11;;;;;;;5.60;3.30;;;28.90;91.90;;;;;;5010839;28;20293;-65
2023/09/10 11:39:40;;;;;;;3.20;3.00;;;28.90;91.60;;;;;;5010809;28;20202;-67
2023/09/10 11:42:12;;;;;;;3.97;3.08;;;29.00;91.40;;;;;;5020813;28;20245;-65
2023/09/10 11:44:39;;;;;;;4.10;3.80;;;29.10;91.30;;;;;;5013511;28;20265;-64
2023/09/10 11:47:06;;;;;;;7.38;4.40;;;29.10;91.20;;;;;;5014824;28;20297;-64
2023/09/10 11:49:33;;;;;;;4.10;3.80;;;29.10;91.00;;;;;;5001784;28;20297;-65
2023/09/10 11:52:00;;;;;;;4.18;3.78;;;29.20;90.90;;;;;;5016459;28;20188;-66
2023/09/10 11:54:29;;;;;;;3.85;3.55;;;29.20;91.00;;;;;;5009199;28;20250;-66
2023/09/10 11:56:58;;;;;;;5.30;4.80;;;29.30;90.70;;;;;;5021927;28;20190;-66
2023/09/10 11:59:30;;;;;;;6.05;4.72;;;29.30;89.50;;;;;;5021444;28;20200;-66
2023/09/10 12:01:57;;;;;;;5.43;4.93;;;29.30;89.50;;;;;;4992715;28;20195;-65
2023/09/10 12:04:29;;;;;;;4.90;4.50;;;29.30;89.10;;;;;;5012287;28;20273;-66
2023/09/10 12:06:56;;;;;;;4.70;4.32;;;29.30;89.50;;;;;;5023000;28;20238;-67
2023/09/10 12:09:23;;;;;;;4.78;4.20;;;29.30;89.50;;;;;;5013400;28;20690;-66
2023/09/10 12:11:53;;;;;;;3.78;3.47;;;29.20;89.30;;;;;;5011367;28;20606;-66
2023/09/10 12:14:21;;;;;;;4.90;4.50;;;29.30;89.40;;;;;;5002121;28;20191;-66
2023/09/10 12:16:50;;;;;;;4.15;3.85;;;29.30;88.10;;;;;;4988769;28;20198;-67
2023/09/10 12:19:17;;;;;;;4.07;3.78;;;29.30;87.90;;;;;;5006829;28;20230;-67
2023/09/10 12:21:45;;;;;;;5.38;4.85;;;29.30;88.00;;;;;;5009934;28;20613;-66
2023/09/10 12:24:12;;;;;;;8.57;5.05;;;29.30;87.60;;;;;;5006966;28;20200;-67
2023/09/10 12:26:40;;;;;;;5.25;4.85;;;29.30;87.10;;;;;;5014579;28;20218;-66
2023/09/10 12:29:07;;;;;;;5.15;4.65;;;29.30;86.90;;;;;;4995853;28;20552;-67
2023/09/10 12:31:35;;;;;;;3.95;3.65;;;29.30;87.00;;;;;;5017701;28;20199;-67
2023/09/10 12:34:04;;;;;;;4.40;4.00;;;29.40;87.00;;;;;;5015626;28;20198;-66
2023/09/10 12:36:31;;;;;;;4.43;4.10;;;29.50;86.90;;;;;;5019495;28;20191;-67
2023/09/10 12:39:00;;;;;;;4.18;3.88;;;29.60;86.80;;;;;;5017655;28;20199;-67
2023/09/10 12:41:28;;;;;;;4.20;3.88;;;29.70;86.70;;;;;;5012701;28;20562;-67
2023/09/10 12:43:56;;;;;;;4.78;3.88;;;29.60;86.80;;;;;;5017186;28;20570;-67
2023/09/10 12:46:24;;;;;;;5.93;5.38;;;29.70;86.80;;;;;;5016200;28;20697;-67
2023/09/10 12:48:51;;;;;;;5.10;4.70;;;29.90;86.40;;;;;;5019428;28;20206;-66
2023/09/10 12:51:19;;;;;;;4.65;4.15;;;30.30;85.90;;;;;;5019533;28;20212;-68
2023/09/10 12:53:46;;;;;;;4.00;3.70;;;30.60;85.00;;;;;;5014539;28;20195;-66